Time;durP1;ratioP1;P1;durP2;ratioP2;P2;SDS_P1;SDS_P2;PMS_P1;PMS_P2;Temp;Humidity;BMP_temperature;BMP_pressure;BME280_temperature;BME280_humidity;BME280_pressure;Samples;Min_cycle;Max_cycle;Signal;HPM_P1;HPM_P2
2022/08/19 00:02:06;;;;;;;1.88;1.75;;;24.60;57.30;;;;;;4964680;28;20501;-84
2022/08/19 00:04:36;;;;;;;2.20;1.70;;;24.60;57.40;;;;;;4980712;28;20032;-81
2022/08/19 00:07:03;;;;;;;1.83;1.70;;;24.60;57.40;;;;;;4996805;28;20056;-82
2022/08/19 00:09:29;;;;;;;2.17;1.80;;;24.50;57.40;;;;;;4981106;28;20033;-82
2022/08/19 00:11:56;;;;;;;2.00;1.80;;;24.50;57.40;;;;;;4997135;28;20459;-81
2022/08/19 00:14:24;;;;;;;2.47;1.83;;;24.50;57.50;;;;;;5014167;28;20026;-83
2022/08/19 00:16:53;;;;;;;2.85;2.03;;;24.50;57.50;;;;;;4980919;28;20500;-82
2022/08/19 00:19:20;;;;;;;2.00;1.70;;;24.40;57.50;;;;;;4997097;28;20076;-81
2022/08/19 00:21:46;;;;;;;1.70;1.60;;;24.50;57.60;;;;;;4997077;28;20053;-83
2022/08/19 00:24:15;;;;;;;2.40;2.00;;;24.40;57.50;;;;;;5014574;28;20030;-82
2022/08/19 00:26:42;;;;;;;2.35;2.03;;;24.40;57.60;;;;;;4980731;28;20084;-83
2022/08/19 00:29:10;;;;;;;1.77;1.67;;;24.40;57.60;;;;;;4980444;28;20030;-81
2022/08/19 00:31:35;;;;;;;1.75;1.65;;;24.40;57.70;;;;;;4996811;28;20032;-81
2022/08/19 00:34:02;;;;;;;2.30;2.10;;;24.30;57.60;;;;;;4996567;28;20034;-81
2022/08/19 00:36:28;;;;;;;2.53;1.92;;;24.30;57.60;;;;;;4965199;28;20042;-83
2022/08/19 00:38:54;;;;;;;1.90;1.70;;;24.30;57.70;;;;;;4997292;28;20046;-81
2022/08/19 00:41:22;;;;;;;2.10;1.75;;;24.30;57.70;;;;;;4980475;28;20375;-81
2022/08/19 00:43:59;;;;;;;1.92;1.83;;;24.20;57.60;;;;;;4996115;28;20026;-81
2022/08/19 00:46:25;;;;;;;1.70;1.60;;;24.20;57.80;;;;;;4996291;28;20038;-81
2022/08/19 00:48:51;;;;;;;1.90;1.75;;;24.20;57.70;;;;;;5013701;28;20058;-84
2022/08/19 00:51:17;;;;;;;2.08;1.88;;;24.20;57.70;;;;;;4996919;28;20041;-82
2022/08/19 00:53:43;;;;;;;1.88;1.67;;;24.20;57.70;;;;;;5013656;28;20085;-81
2022/08/19 00:56:10;;;;;;;3.03;1.90;;;24.10;57.70;;;;;;4979774;28;20113;-81
2022/08/19 00:58:36;;;;;;;2.08;1.80;;;24.10;57.70;;;;;;4980540;28;20060;-82
2022/08/19 01:01:04;;;;;;;2.33;1.73;;;24.10;57.80;;;;;;4982438;28;20032;-82
2022/08/19 01:03:29;;;;;;;2.33;2.13;;;24.10;57.80;;;;;;4999593;28;20462;-81
2022/08/19 01:05:56;;;;;;;2.33;2.08;;;24.00;57.70;;;;;;4980647;28;20061;-83
2022/08/19 01:08:22;;;;;;;2.17;1.90;;;24.00;57.80;;;;;;4979304;28;20037;-83
2022/08/19 01:10:55;;;;;;;2.80;2.00;;;24.00;57.80;;;;;;4996375;28;20387;-82
2022/08/19 01:13:25;;;;;;;2.35;1.90;;;24.00;57.90;;;;;;4995622;28;20037;-82
2022/08/19 01:15:59;;;;;;;2.33;2.10;;;24.00;57.80;;;;;;4979735;28;20033;-82
2022/08/19 01:18:26;;;;;;;2.30;2.03;;;23.90;57.80;;;;;;4996380;28;20096;-82
2022/08/19 01:20:55;;;;;;;2.10;1.90;;;24.00;57.80;;;;;;5013445;28;20025;-83
2022/08/19 01:23:21;;;;;;;5.63;1.90;;;23.90;57.90;;;;;;4995762;28;20029;-83
2022/08/19 01:25:50;;;;;;;2.08;1.80;;;23.90;57.90;;;;;;4979486;28;20329;-81
2022/08/19 01:28:27;;;;;;;2.00;1.80;;;23.80;57.90;;;;;;4996209;28;20060;-81
2022/08/19 01:30:54;;;;;;;2.10;1.90;;;23.80;58.00;;;;;;4996676;28;20471;-81
2022/08/19 01:33:20;;;;;;;2.20;1.80;;;23.80;57.90;;;;;;4995667;28;20067;-82
2022/08/19 01:35:50;;;;;;;2.55;2.10;;;23.70;57.90;;;;;;4980065;28;20034;-82
2022/08/19 01:38:25;;;;;;;1.83;1.70;;;23.70;58.00;;;;;;4995828;28;20041;-81
2022/08/19 01:40:52;;;;;;;2.00;1.80;;;23.70;58.10;;;;;;5013506;28;20482;-83
2022/08/19 01:43:18;;;;;;;2.05;1.88;;;23.70;58.00;;;;;;4995964;28;20459;-82
2022/08/19 01:45:45;;;;;;;1.70;1.60;;;23.60;58.10;;;;;;4980082;28;20092;-82
2022/08/19 01:48:11;;;;;;;3.08;2.15;;;23.70;58.10;;;;;;4995937;28;20102;-82
2022/08/19 01:50:37;;;;;;;2.55;1.90;;;23.60;58.10;;;;;;4979231;28;20086;-82
2022/08/19 01:53:06;;;;;;;2.70;2.13;;;23.60;58.10;;;;;;4996420;28;20049;-82
2022/08/19 01:55:34;;;;;;;2.42;1.98;;;23.60;58.20;;;;;;4995677;28;20038;-81
2022/08/19 01:58:05;;;;;;;2.67;1.98;;;23.60;58.20;;;;;;5013205;28;20022;-82
2022/08/19 02:00:32;;;;;;;2.70;2.08;;;23.60;58.20;;;;;;4996166;28;20066;-83
2022/08/19 02:02:58;;;;;;;2.90;2.10;;;23.50;58.20;;;;;;5013152;28;20116;-82
2022/08/19 02:05:24;;;;;;;2.90;1.90;;;23.50;58.30;;;;;;4979943;28;20074;-81
2022/08/19 02:07:50;;;;;;;2.88;2.10;;;23.40;58.30;;;;;;5012831;28;20026;-81
2022/08/19 02:10:21;;;;;;;2.08;1.75;;;23.40;58.30;;;;;;4995920;28;20514;-82
2022/08/19 02:12:49;;;;;;;2.13;1.92;;;23.40;58.40;;;;;;4995895;28;20025;-82
2022/08/19 02:15:15;;;;;;;2.33;2.13;;;23.40;58.30;;;;;;5013624;28;20048;-83
2022/08/19 02:17:42;;;;;;;1.95;1.75;;;23.40;58.40;;;;;;4979764;28;20065;-82
2022/08/19 02:20:08;;;;;;;2.88;2.10;;;23.40;58.40;;;;;;5014813;28;20079;-83
2022/08/19 02:22:35;;;;;;;2.35;1.98;;;23.30;58.40;;;;;;4967390;28;20061;-84
2022/08/19 02:25:01;;;;;;;2.83;2.30;;;23.30;58.50;;;;;;4999381;28;20030;-82
2022/08/19 02:27:27;;;;;;;2.53;2.15;;;23.30;58.60;;;;;;4998946;28;20034;-82
2022/08/19 02:29:53;;;;;;;2.50;1.90;;;23.30;58.60;;;;;;4998838;28;20448;-82
2022/08/19 02:32:19;;;;;;;3.08;2.10;;;23.30;58.60;;;;;;4982502;28;20030;-83
2022/08/19 02:34:46;;;;;;;2.55;1.90;;;23.20;58.60;;;;;;4998960;28;20034;-82
2022/08/19 02:39:57;;;;;;;;;;;23.20;58.70;;;;;;5016497;28;20034;-83
2022/08/19 02:42:23;;;;;;;2.58;2.10;;;23.20;58.60;;;;;;4998485;28;19912;-82
2022/08/19 02:44:49;;;;;;;3.17;2.17;;;23.20;58.60;;;;;;4998982;28;20057;-82
2022/08/19 02:47:14;;;;;;;2.78;2.28;;;23.20;58.80;;;;;;5016622;28;20463;-82
2022/08/19 02:49:41;;;;;;;2.38;2.10;;;23.10;58.80;;;;;;4967684;28;20057;-81
2022/08/19 02:52:07;;;;;;;3.15;2.30;;;23.10;58.90;;;;;;4985457;28;20044;-81
2022/08/19 02:54:32;;;;;;;2.90;2.17;;;23.10;58.90;;;;;;4983563;28;20084;-82
2022/08/19 02:56:58;;;;;;;3.08;2.40;;;23.10;58.90;;;;;;4982482;28;20033;-81
2022/08/19 02:59:26;;;;;;;2.72;2.22;;;23.10;59.00;;;;;;4998378;28;20418;-82
2022/08/19 03:01:52;;;;;;;2.65;2.10;;;23.10;58.90;;;;;;4982201;28;20018;-81
2022/08/19 03:04:19;;;;;;;3.10;2.40;;;23.10;59.00;;;;;;4998243;28;20034;-82
2022/08/19 03:06:47;;;;;;;2.83;2.25;;;23.10;59.00;;;;;;4998348;28;20036;-83
2022/08/19 03:09:14;;;;;;;2.42;2.20;;;23.00;59.00;;;;;;5016067;28;20068;-81
2022/08/19 03:11:40;;;;;;;2.92;2.50;;;23.00;59.00;;;;;;4981792;28;20439;-80
2022/08/19 03:14:08;;;;;;;2.90;2.45;;;23.00;59.10;;;;;;4997963;28;20462;-82
2022/08/19 03:16:42;;;;;;;2.67;2.13;;;23.00;59.10;;;;;;4981989;28;20053;-81
2022/08/19 03:19:07;;;;;;;2.92;2.40;;;23.00;59.20;;;;;;5015946;28;20036;-80
2022/08/19 03:21:34;;;;;;;4.68;2.75;;;23.00;59.10;;;;;;4998042;28;20022;-81
2022/08/19 03:24:04;;;;;;;3.45;2.50;;;22.90;59.10;;;;;;4998049;28;20030;-81
2022/08/19 03:26:29;;;;;;;3.38;2.53;;;22.90;59.10;;;;;;4981751;28;20026;-81
2022/08/19 03:28:55;;;;;;;4.10;2.90;;;22.90;59.10;;;;;;4965603;28;20026;-81
2022/08/19 03:31:23;;;;;;;4.45;3.00;;;22.90;59.10;;;;;;4997405;28;20026;-80
2022/08/19 03:33:50;;;;;;;3.40;2.67;;;22.80;59.10;;;;;;4998009;28;20120;-81
2022/08/19 03:36:20;;;;;;;3.33;2.65;;;22.90;59.20;;;;;;4997694;28;20030;-83
2022/08/19 03:38:58;;;;;;;3.30;2.88;;;22.90;59.20;;;;;;4997659;28;20061;-80
2022/08/19 03:41:32;;;;;;;3.60;2.65;;;22.80;59.20;;;;;;4981375;28;20029;-80
2022/08/19 03:43:59;;;;;;;4.45;2.95;;;22.80;59.20;;;;;;5014971;28;20036;-81
2022/08/19 03:46:28;;;;;;;3.50;2.90;;;22.80;59.20;;;;;;4981207;28;20085;-81
2022/08/19 03:48:56;;;;;;;3.33;2.88;;;22.80;59.30;;;;;;4997401;28;20038;-80
2022/08/19 03:51:32;;;;;;;3.95;2.90;;;22.70;59.20;;;;;;4997697;28;20073;-81
2022/08/19 03:53:59;;;;;;;3.78;3.00;;;22.70;59.40;;;;;;5015479;28;20555;-80
2022/08/19 03:56:27;;;;;;;3.72;2.92;;;22.70;59.30;;;;;;4981485;28;20041;-81
2022/08/19 03:58:57;;;;;;;3.15;2.65;;;22.70;59.30;;;;;;5015133;28;20029;-81
2022/08/19 04:01:27;;;;;;;4.43;3.13;;;22.70;59.30;;;;;;4997446;28;20037;-80
2022/08/19 04:03:56;;;;;;;3.58;2.90;;;22.70;59.40;;;;;;4981316;28;20014;-81
2022/08/19 04:06:28;;;;;;;3.47;2.78;;;22.60;59.30;;;;;;5014700;28;20037;-80
2022/08/19 04:08:56;;;;;;;3.45;2.70;;;22.60;59.30;;;;;;4980957;28;20075;-82
2022/08/19 04:11:28;;;;;;;3.30;2.78;;;22.60;59.30;;;;;;4997402;28;20045;-80
2022/08/19 04:13:54;;;;;;;3.25;2.70;;;22.60;59.50;;;;;;4981062;28;20030;-81
2022/08/19 04:16:23;;;;;;;3.65;2.90;;;22.60;59.50;;;;;;4981065;28;20045;-81
2022/08/19 04:18:49;;;;;;;3.13;2.72;;;22.60;59.50;;;;;;4997125;28;20495;-83
2022/08/19 04:21:21;;;;;;;3.80;3.00;;;22.50;59.40;;;;;;4997054;28;20529;-83
2022/08/19 04:23:47;;;;;;;4.35;2.95;;;22.50;59.50;;;;;;4997281;28;20448;-82
2022/08/19 04:26:16;;;;;;;3.67;2.85;;;22.50;59.50;;;;;;5014667;28;20462;-82
2022/08/19 04:28:43;;;;;;;3.30;2.70;;;22.50;59.50;;;;;;4997025;28;20028;-82
2022/08/19 04:31:14;;;;;;;3.20;2.63;;;22.50;59.60;;;;;;4996867;28;20100;-82
2022/08/19 04:33:40;;;;;;;3.83;2.88;;;22.50;59.60;;;;;;5014704;28;20109;-82
2022/08/19 04:36:07;;;;;;;3.78;3.00;;;22.40;59.60;;;;;;4980330;28;20030;-82
2022/08/19 04:38:33;;;;;;;3.28;2.63;;;22.40;59.60;;;;;;5014705;28;20030;-81
2022/08/19 04:43:48;;;;;;;3.40;2.70;;;22.40;59.70;;;;;;5014518;28;20490;-82
2022/08/19 04:46:14;;;;;;;3.78;2.85;;;22.40;59.60;;;;;;4981092;28;20038;-81
2022/08/19 04:48:40;;;;;;;3.75;2.92;;;22.40;59.70;;;;;;4996189;28;20030;-82
2022/08/19 04:51:09;;;;;;;3.47;2.85;;;22.30;59.70;;;;;;4980241;28;20041;-81
2022/08/19 04:53:37;;;;;;;4.35;2.90;;;22.30;59.80;;;;;;5014232;28;20030;-83
2022/08/19 04:56:08;;;;;;;2.95;2.63;;;22.30;59.80;;;;;;4996112;28;20485;-84
2022/08/19 04:58:37;;;;;;;3.92;2.88;;;22.30;59.80;;;;;;4980015;28;20498;-83
2022/08/19 05:01:03;;;;;;;3.10;2.72;;;22.30;59.80;;;;;;4996280;28;20061;-83
2022/08/19 05:03:33;;;;;;;3.55;2.83;;;22.30;59.70;;;;;;5013858;28;20034;-82
2022/08/19 05:06:09;;;;;;;4.53;3.63;;;22.30;59.80;;;;;;5013636;28;20029;-81
2022/08/19 05:08:36;;;;;;;4.05;2.83;;;22.20;59.80;;;;;;5013474;28;20033;-81
2022/08/19 05:11:09;;;;;;;3.50;2.70;;;22.20;59.80;;;;;;4995732;28;20049;-80
2022/08/19 05:13:35;;;;;;;3.40;2.75;;;22.20;59.90;;;;;;5013754;28;20036;-81
2022/08/19 05:16:00;;;;;;;3.50;3.05;;;22.20;59.80;;;;;;4979591;28;20076;-81
2022/08/19 05:24:08;;;;;;;3.75;2.85;;;22.20;59.90;;;;;;4995979;28;20509;-80
2022/08/19 05:26:35;;;;;;;3.80;2.92;;;22.10;59.90;;;;;;4965148;28;20038;-81
2022/08/19 05:29:02;;;;;;;3.25;2.67;;;22.10;60.00;;;;;;4979568;28;20459;-81
2022/08/19 05:31:28;;;;;;;4.00;3.20;;;22.10;60.00;;;;;;4979610;28;20375;-81
2022/08/19 05:33:53;;;;;;;3.85;3.00;;;22.10;60.00;;;;;;4979725;28;20129;-81
2022/08/19 05:36:19;;;;;;;3.40;2.97;;;22.10;60.10;;;;;;4963588;28;20038;-80
2022/08/19 05:38:47;;;;;;;3.80;3.00;;;22.10;60.10;;;;;;4964574;28;20045;-84
2022/08/19 05:41:15;;;;;;;3.70;3.00;;;22.10;60.10;;;;;;4963957;28;20432;-82
2022/08/19 05:43:40;;;;;;;3.63;3.00;;;22.00;60.20;;;;;;4995803;28;20029;-80
2022/08/19 05:46:08;;;;;;;3.78;3.10;;;22.10;60.20;;;;;;5013479;28;20096;-82
2022/08/19 05:48:35;;;;;;;3.28;2.75;;;22.10;60.20;;;;;;4980303;28;20037;-81
2022/08/19 05:51:06;;;;;;;3.42;2.67;;;22.00;60.20;;;;;;4996402;28;20036;-82
2022/08/19 05:53:33;;;;;;;3.78;2.80;;;22.00;60.30;;;;;;4995430;28;20030;-81
2022/08/19 05:56:07;;;;;;;3.80;3.03;;;22.00;60.20;;;;;;4983120;28;20125;-82
2022/08/19 05:58:34;;;;;;;3.80;3.00;;;22.00;60.30;;;;;;4999582;28;20034;-82
2022/08/19 06:01:04;;;;;;;4.03;3.03;;;22.00;60.30;;;;;;4983381;28;20089;-82
2022/08/19 06:03:34;;;;;;;4.07;3.10;;;22.00;60.30;;;;;;4999342;28;20042;-83
2022/08/19 06:06:00;;;;;;;3.92;2.90;;;22.00;60.40;;;;;;4999292;28;20386;-81
2022/08/19 06:08:26;;;;;;;3.13;2.72;;;22.00;60.40;;;;;;5000123;28;20026;-81
2022/08/19 06:10:53;;;;;;;4.05;3.08;;;22.00;60.40;;;;;;4999107;28;20037;-82
2022/08/19 06:13:19;;;;;;;3.72;3.13;;;21.90;60.40;;;;;;4999289;28;20030;-82
2022/08/19 06:15:46;;;;;;;4.00;2.85;;;22.00;60.50;;;;;;4999283;28;20033;-82
2022/08/19 06:18:13;;;;;;;3.92;3.05;;;22.00;60.50;;;;;;4983066;28;20038;-82
2022/08/19 06:20:40;;;;;;;4.15;3.50;;;22.00;60.60;;;;;;5016295;28;20058;-83
2022/08/19 06:23:06;;;;;;;4.30;3.40;;;22.00;60.60;;;;;;4982920;28;20026;-82
2022/08/19 06:25:32;;;;;;;3.45;3.00;;;22.00;60.60;;;;;;4998956;28;20479;-82
2022/08/19 06:27:57;;;;;;;4.07;3.00;;;22.00;60.60;;;;;;4999850;28;20052;-82
2022/08/19 06:30:23;;;;;;;4.25;3.25;;;22.00;60.60;;;;;;4983248;28;20045;-83
2022/08/19 06:32:49;;;;;;;4.22;3.15;;;22.00;60.60;;;;;;4984089;28;20033;-82
2022/08/19 06:35:15;;;;;;;3.53;2.97;;;22.00;60.60;;;;;;5000122;28;20033;-81
2022/08/19 06:37:41;;;;;;;3.85;3.05;;;22.00;60.70;;;;;;4982669;28;20442;-82
2022/08/19 06:40:08;;;;;;;3.75;3.15;;;22.00;60.70;;;;;;4966474;28;20121;-83
2022/08/19 06:42:35;;;;;;;4.07;3.13;;;22.00;60.70;;;;;;4966720;28;20076;-84
2022/08/19 06:45:03;;;;;;;4.97;3.63;;;22.00;60.70;;;;;;4982498;28;20033;-83
2022/08/19 06:47:30;;;;;;;4.75;3.53;;;22.00;60.70;;;;;;4982923;28;20116;-82
2022/08/19 06:50:02;;;;;;;3.78;3.05;;;22.00;60.70;;;;;;4982469;28;20096;-79
2022/08/19 06:52:32;;;;;;;4.05;3.40;;;22.00;60.80;;;;;;4982425;28;20060;-83
2022/08/19 06:54:59;;;;;;;4.13;3.33;;;22.10;60.80;;;;;;4999251;28;20116;-82
2022/08/19 06:57:25;;;;;;;4.75;3.50;;;22.10;60.80;;;;;;4982330;28;20038;-85
2022/08/19 06:59:51;;;;;;;4.70;3.70;;;22.10;60.90;;;;;;4998172;28;20026;-82
2022/08/19 07:02:18;;;;;;;5.38;4.13;;;22.10;60.90;;;;;;4997870;28;20077;-82
2022/08/19 07:04:44;;;;;;;4.72;3.88;;;22.10;60.90;;;;;;4998101;28;20113;-82
2022/08/19 07:07:13;;;;;;;5.22;3.83;;;22.10;60.90;;;;;;4980562;28;20057;-81
2022/08/19 07:09:43;;;;;;;4.85;3.72;;;22.10;60.90;;;;;;4998253;28;20073;-83
2022/08/19 07:12:14;;;;;;;5.57;4.65;;;22.20;60.90;;;;;;4965535;28;20201;-82
2022/08/19 07:14:41;;;;;;;6.22;4.60;;;22.10;60.90;;;;;;4981616;28;20033;-82
2022/08/19 07:17:09;;;;;;;6.25;4.90;;;22.10;60.80;;;;;;4997631;28;20029;-82
2022/08/19 07:19:36;;;;;;;5.80;4.57;;;22.20;61.00;;;;;;4997389;28;20034;-82
2022/08/19 07:22:04;;;;;;;6.50;4.60;;;22.20;60.90;;;;;;4997546;28;20033;-83
2022/08/19 07:24:31;;;;;;;6.47;4.82;;;22.20;60.90;;;;;;4997802;28;20034;-82
2022/08/19 07:27:01;;;;;;;8.07;5.25;;;22.20;60.90;;;;;;4981257;28;20164;-81
2022/08/19 07:29:28;;;;;;;6.53;4.97;;;22.30;61.00;;;;;;4982196;28;20038;-81
2022/08/19 07:31:58;;;;;;;6.97;5.13;;;22.30;61.00;;;;;;4998401;28;20034;-82
2022/08/19 07:34:25;;;;;;;7.25;5.22;;;22.30;61.00;;;;;;4998852;28;20030;-82
2022/08/19 07:36:52;;;;;;;8.43;5.95;;;22.30;60.90;;;;;;4981252;28;20477;-80
2022/08/19 07:39:28;;;;;;;7.13;5.70;;;22.30;60.90;;;;;;4981546;28;20052;-82
2022/08/19 07:41:55;;;;;;;8.13;6.05;;;22.30;61.00;;;;;;4981713;28;20034;-80
2022/08/19 07:44:21;;;;;;;7.63;5.47;;;22.40;61.60;;;;;;4981917;28;20429;-80
2022/08/19 07:46:51;;;;;;;8.10;5.85;;;22.40;60.90;;;;;;4997512;28;20038;-80
2022/08/19 07:49:19;;;;;;;7.95;5.82;;;22.40;60.90;;;;;;5014699;28;20053;-81
2022/08/19 07:51:51;;;;;;;8.65;5.93;;;22.40;60.90;;;;;;4996978;28;20045;-80
2022/08/19 07:54:19;;;;;;;7.93;5.47;;;22.50;60.90;;;;;;5014924;28;20037;-81
2022/08/19 07:56:45;;;;;;;8.30;6.00;;;22.50;60.90;;;;;;5014412;28;20030;-84
2022/08/19 07:59:11;;;;;;;8.68;6.10;;;22.50;60.80;;;;;;5014427;28;20030;-79
2022/08/19 08:01:39;;;;;;;8.45;6.15;;;22.50;60.90;;;;;;5014512;28;20037;-81
2022/08/19 08:09:45;;;;;;;8.27;5.82;;;22.60;60.70;;;;;;4977022;28;20053;-80
2022/08/19 08:12:14;;;;;;;8.93;5.68;;;22.70;60.70;;;;;;4996800;28;20169;-80
2022/08/19 08:14:45;;;;;;;7.80;5.57;;;22.70;60.70;;;;;;4996630;28;20030;-80
2022/08/19 08:17:12;;;;;;;9.27;7.00;;;22.80;60.70;;;;;;4996103;28;20033;-80
2022/08/19 08:19:40;;;;;;;9.10;6.85;;;22.80;60.70;;;;;;5014095;28;20475;-80
2022/08/19 08:22:07;;;;;;;8.90;6.43;;;22.80;60.60;;;;;;4981308;28;20025;-80
2022/08/19 08:24:35;;;;;;;8.25;6.22;;;22.80;60.60;;;;;;4983934;28;20026;-80
2022/08/19 08:27:03;;;;;;;8.45;6.68;;;22.90;60.50;;;;;;4981263;28;20056;-81
2022/08/19 08:29:30;;;;;;;9.25;7.15;;;22.90;60.50;;;;;;4981352;28;20030;-81
2022/08/19 08:31:56;;;;;;;8.20;6.53;;;22.90;60.40;;;;;;4996484;28;20030;-81
2022/08/19 08:34:22;;;;;;;8.82;6.85;;;23.00;60.40;;;;;;4979925;28;20091;-81
2022/08/19 08:36:50;;;;;;;9.35;7.10;;;23.10;60.40;;;;;;5013609;28;20128;-81
2022/08/19 08:39:19;;;;;;;7.95;6.63;;;23.10;60.40;;;;;;4980182;28;20038;-81
2022/08/19 08:41:58;;;;;;;9.20;7.25;;;23.10;60.30;;;;;;4996305;28;20060;-81
2022/08/19 08:44:40;;;;;;;8.80;6.93;;;23.20;60.30;;;;;;4996597;28;20034;-81
2022/08/19 08:47:13;;;;;;;8.38;6.22;;;23.20;60.20;;;;;;4980706;28;20044;-81
2022/08/19 08:49:55;;;;;;;8.10;6.22;;;23.30;60.20;;;;;;4996191;28;20133;-81
2022/08/19 08:52:35;;;;;;;8.50;6.45;;;23.30;60.10;;;;;;4980123;28;20040;-81
2022/08/19 08:55:22;;;;;;;8.27;6.97;;;23.40;60.10;;;;;;4980356;28;20125;-80
2022/08/19 08:57:48;;;;;;;7.97;6.28;;;23.40;60.00;;;;;;5013875;28;20505;-81
2022/08/19 09:00:29;;;;;;;8.88;6.93;;;23.50;59.80;;;;;;4996111;28;20036;-81
2022/08/19 09:02:57;;;;;;;7.90;6.28;;;23.60;59.80;;;;;;4996246;28;20029;-80
2022/08/19 09:05:29;;;;;;;8.32;6.68;;;23.60;59.70;;;;;;4995910;28;20049;-80
2022/08/19 09:08:08;;;;;;;7.63;5.90;;;23.70;59.60;;;;;;4980433;28;20056;-81
2022/08/19 09:10:39;;;;;;;7.93;6.60;;;23.80;59.60;;;;;;4996834;28;20124;-81
2022/08/19 09:13:27;;;;;;;8.20;6.20;;;23.80;59.40;;;;;;4996490;28;20030;-81
2022/08/19 09:16:20;;;;;;;8.13;6.50;;;23.90;59.40;;;;;;5013331;28;20042;-81
2022/08/19 09:18:53;;;;;;;7.18;5.63;;;24.00;59.40;;;;;;4996291;28;20092;-80
2022/08/19 09:21:20;;;;;;;7.88;6.10;;;24.10;59.20;;;;;;5013656;28;20034;-81
2022/08/19 09:23:46;;;;;;;7.32;5.95;;;24.20;59.10;;;;;;4996019;28;20113;-81
2022/08/19 09:26:16;;;;;;;8.20;6.38;;;24.20;59.00;;;;;;4980008;28;20362;-80
2022/08/19 09:28:43;;;;;;;7.45;6.15;;;24.30;59.00;;;;;;4995637;28;20026;-80
2022/08/19 09:31:14;;;;;;;8.05;6.20;;;24.40;58.90;;;;;;4999886;28;20459;-80
2022/08/19 09:33:43;;;;;;;8.02;6.47;;;24.50;58.90;;;;;;5017574;28;20470;-80
2022/08/19 09:36:11;;;;;;;7.60;5.75;;;24.50;58.70;;;;;;4983530;28;20092;-80
2022/08/19 09:38:40;;;;;;;7.70;5.95;;;24.60;58.60;;;;;;4983602;28;20076;-79
2022/08/19 09:41:15;;;;;;;8.00;6.30;;;24.70;58.60;;;;;;4999802;28;20033;-80
2022/08/19 09:43:45;;;;;;;9.52;5.97;;;24.80;58.60;;;;;;5017265;28;20080;-79
2022/08/19 09:46:12;;;;;;;7.35;5.88;;;24.90;58.50;;;;;;5017258;28;20494;-81
2022/08/19 09:48:39;;;;;;;7.70;6.07;;;24.90;58.40;;;;;;4983286;28;20096;-80
2022/08/19 09:51:12;;;;;;;8.15;6.15;;;25.00;58.40;;;;;;4983888;28;20034;-80
2022/08/19 09:53:39;;;;;;;7.80;6.13;;;25.10;58.40;;;;;;5017448;28;20041;-81
2022/08/19 09:56:06;;;;;;;8.10;6.35;;;25.10;58.30;;;;;;4999835;28;20033;-80
2022/08/19 09:58:33;;;;;;;8.15;6.13;;;25.20;58.30;;;;;;4983987;28;20381;-80
2022/08/19 10:01:01;;;;;;;7.65;6.03;;;25.30;58.30;;;;;;4984230;28;20038;-81
2022/08/19 10:03:28;;;;;;;7.68;6.00;;;25.30;58.20;;;;;;4999726;28;20036;-79
2022/08/19 10:05:55;;;;;;;8.23;6.45;;;25.40;58.20;;;;;;5016797;28;20030;-79
2022/08/19 10:08:25;;;;;;;8.23;6.50;;;25.50;58.20;;;;;;4999650;28;20052;-80
2022/08/19 10:10:52;;;;;;;7.10;5.70;;;25.50;58.10;;;;;;4998972;28;20034;-81
2022/08/19 10:13:22;;;;;;;8.07;6.28;;;25.60;58.10;;;;;;4982867;28;20063;-80
2022/08/19 10:15:50;;;;;;;7.80;6.03;;;25.70;58.10;;;;;;4982657;28;20069;-80
2022/08/19 10:18:17;;;;;;;7.47;6.05;;;25.70;58.00;;;;;;4999397;28;20058;-80
2022/08/19 10:20:45;;;;;;;7.47;5.97;;;25.80;58.00;;;;;;4982824;28;20056;-81
2022/08/19 10:23:11;;;;;;;7.03;5.78;;;25.90;58.00;;;;;;4998773;28;20371;-81
2022/08/19 10:25:37;;;;;;;7.85;5.70;;;26.00;58.00;;;;;;4982706;28;20034;-80
2022/08/19 10:28:05;;;;;;;7.68;6.18;;;26.00;57.80;;;;;;4982285;28;20033;-81
2022/08/19 10:30:32;;;;;;;7.43;5.68;;;26.10;57.80;;;;;;4998639;28;20050;-81
2022/08/19 10:32:57;;;;;;;7.25;5.35;;;26.20;57.80;;;;;;4998789;28;20374;-81
2022/08/19 10:35:26;;;;;;;7.80;5.80;;;26.30;57.70;;;;;;4998651;28;20045;-81
2022/08/19 10:37:52;;;;;;;7.00;5.57;;;26.40;57.80;;;;;;4998576;28;20037;-81
2022/08/19 10:40:17;;;;;;;8.48;5.78;;;26.40;57.60;;;;;;4999133;28;20483;-80
2022/08/19 10:42:44;;;;;;;7.15;5.55;;;26.50;57.60;;;;;;4982946;28;20037;-80
2022/08/19 10:45:10;;;;;;;8.13;5.68;;;26.50;57.50;;;;;;4982091;28;20115;-80
2022/08/19 10:47:36;;;;;;;7.53;5.90;;;26.60;57.50;;;;;;5015657;28;20379;-81
2022/08/19 10:52:49;;;;;;;7.30;5.47;;;26.80;57.50;;;;;;4998633;28;20471;-82
2022/08/19 10:58:00;;;;;;;9.68;5.53;;;26.90;57.40;;;;;;4999353;28;20034;-85
2022/08/19 11:00:27;;;;;;;6.45;5.20;;;27.00;57.40;;;;;;4983940;28;20112;-83
2022/08/19 11:02:53;;;;;;;7.55;5.97;;;27.10;57.40;;;;;;5016260;28;20041;-84
2022/08/19 11:05:19;;;;;;;6.97;5.35;;;27.10;57.40;;;;;;4966757;28;20033;-82
2022/08/19 11:07:45;;;;;;;7.05;5.15;;;27.20;57.40;;;;;;4997986;28;20355;-83
2022/08/19 11:10:13;;;;;;;6.15;5.00;;;27.20;57.40;;;;;;4981900;28;20368;-83
2022/08/19 11:12:40;;;;;;;7.40;5.55;;;27.30;57.50;;;;;;4998072;28;20040;-84
2022/08/19 11:15:10;;;;;;;6.30;5.22;;;27.30;57.50;;;;;;4998342;28;20066;-84
2022/08/19 11:17:40;;;;;;;6.55;5.20;;;27.40;58.30;;;;;;4999184;28;20538;-83
2022/08/19 11:20:06;;;;;;;7.53;5.63;;;27.40;57.70;;;;;;5015660;28;20109;-83
2022/08/19 11:22:32;;;;;;;7.43;5.55;;;27.40;57.80;;;;;;4989288;28;20457;-83
2022/08/19 11:24:58;;;;;;;7.78;5.20;;;27.50;57.90;;;;;;5030493;28;20056;-82
2022/08/19 11:27:23;;;;;;;6.28;5.13;;;27.50;58.00;;;;;;4985041;28;20029;-81
2022/08/19 11:29:49;;;;;;;6.88;5.43;;;27.50;58.10;;;;;;5002001;28;20336;-82
2022/08/19 11:32:16;;;;;;;6.53;4.72;;;27.60;58.30;;;;;;4966922;28;20041;-83
2022/08/19 11:34:41;;;;;;;5.93;4.88;;;27.60;58.40;;;;;;4997703;28;20041;-82
2022/08/19 11:37:08;;;;;;;6.55;5.20;;;27.70;58.50;;;;;;4981648;28;20517;-82
2022/08/19 11:39:36;;;;;;;5.65;4.38;;;27.70;58.70;;;;;;4981859;28;20037;-81
2022/08/19 11:42:54;;;;;;;5.50;4.65;;;27.80;58.90;;;;;;4981431;28;20106;-82
2022/08/19 11:44:48;;;;;;;6.60;5.15;;;27.80;59.00;;;;;;4997631;28;20092;-82
2022/08/19 11:47:13;;;;;;;5.63;4.78;;;27.80;59.10;;;;;;4997707;28;20030;-83
2022/08/19 11:49:39;;;;;;;5.28;4.30;;;27.80;59.10;;;;;;4980929;28;20050;-84
2022/08/19 11:52:05;;;;;;;6.38;4.97;;;27.80;59.20;;;;;;4981036;28;20042;-83
2022/08/19 11:54:31;;;;;;;5.68;4.55;;;27.90;59.30;;;;;;5015928;28;20037;-82
2022/08/19 11:56:56;;;;;;;5.63;4.53;;;27.90;59.40;;;;;;4997924;28;20041;-83
2022/08/19 11:59:22;;;;;;;5.72;4.63;;;27.90;59.50;;;;;;4982381;28;20026;-84
2022/08/19 12:01:48;;;;;;;5.20;3.83;;;28.00;59.50;;;;;;4981340;28;20038;-84
2022/08/19 12:04:13;;;;;;;6.00;4.47;;;27.90;59.50;;;;;;4998156;28;20026;-83
2022/08/19 12:06:40;;;;;;;5.25;4.15;;;28.00;59.60;;;;;;4982281;28;20042;-83
2022/08/19 12:09:09;;;;;;;5.53;4.38;;;28.00;59.60;;;;;;4980763;28;20026;-79
2022/08/19 12:11:36;;;;;;;5.43;4.50;;;28.00;59.60;;;;;;4996964;28;20112;-79
2022/08/19 12:14:02;;;;;;;6.15;4.78;;;28.00;59.50;;;;;;4996505;28;20022;-79
2022/08/19 12:16:31;;;;;;;5.15;4.13;;;28.00;59.50;;;;;;4980408;28;20045;-79
2022/08/19 12:18:58;;;;;;;5.63;4.35;;;28.10;59.60;;;;;;4996849;28;20018;-79
2022/08/19 12:21:28;;;;;;;6.63;4.53;;;28.10;59.60;;;;;;4996984;28;20088;-79
2022/08/19 12:23:55;;;;;;;5.00;4.07;;;28.10;59.50;;;;;;5014389;28;20030;-82
2022/08/19 12:26:21;;;;;;;5.88;4.70;;;28.10;59.50;;;;;;4996649;28;20160;-81
2022/08/19 12:28:47;;;;;;;5.45;4.30;;;28.10;59.40;;;;;;4997504;28;20499;-81
2022/08/19 12:31:14;;;;;;;5.80;4.82;;;28.10;59.40;;;;;;4998289;28;20363;-79
2022/08/19 12:33:41;;;;;;;5.43;4.30;;;28.20;59.40;;;;;;4981481;28;20057;-82
2022/08/19 12:36:10;;;;;;;5.45;4.15;;;28.20;59.30;;;;;;4996598;28;20041;-80
2022/08/19 12:38:37;;;;;;;5.25;4.22;;;28.10;59.20;;;;;;4996418;28;20037;-81
2022/08/19 12:41:05;;;;;;;5.38;4.15;;;28.20;59.20;;;;;;5014351;28;20100;-81
2022/08/19 12:43:32;;;;;;;6.53;4.53;;;28.20;59.10;;;;;;5013708;28;20121;-82
2022/08/19 12:45:58;;;;;;;5.93;4.35;;;28.20;59.00;;;;;;4996595;28;20046;-82
2022/08/19 12:48:24;;;;;;;5.68;4.80;;;28.20;59.00;;;;;;4996700;28;20029;-81
2022/08/19 12:50:49;;;;;;;5.93;5.03;;;28.20;58.90;;;;;;4979728;28;20141;-80
2022/08/19 12:53:16;;;;;;;5.03;4.15;;;28.30;59.00;;;;;;4963867;28;20475;-81
2022/08/19 12:55:45;;;;;;;6.45;4.75;;;28.20;58.80;;;;;;4996462;28;20066;-80
2022/08/19 12:58:12;;;;;;;5.63;4.43;;;28.30;58.80;;;;;;4980796;28;20064;-81
2022/08/19 13:00:39;;;;;;;6.00;4.47;;;28.30;58.70;;;;;;4996648;28;20030;-81
2022/08/19 13:03:05;;;;;;;6.05;4.28;;;28.30;58.70;;;;;;4997003;28;20029;-80
2022/08/19 13:05:33;;;;;;;6.28;4.85;;;28.30;58.60;;;;;;4980361;28;20192;-81
2022/08/19 13:07:59;;;;;;;5.85;4.80;;;28.30;58.60;;;;;;4996198;28;20397;-79
2022/08/19 13:10:28;;;;;;;6.03;5.03;;;28.30;58.50;;;;;;4995919;28;20042;-80
2022/08/19 13:12:55;;;;;;;6.00;5.18;;;28.30;58.50;;;;;;4979850;28;20041;-78
2022/08/19 13:15:23;;;;;;;6.47;5.30;;;28.40;58.50;;;;;;4979618;28;20038;-83